Data for 01/29/2009

Time Sea-Level Adjusted Pressure Absolute Pressure Temperature Relative Humidity Dew Point   
(mb) (inHg) (mb) (inHg) (C) (F) (%) (C) (F)
00:05 1023 30.21 852 25.16 -3.4 25.8 58 -10.5 13.1
00:10 1023 30.21 852 25.16 -3.5 25.7 58 -10.6 12.9
00:15 1023 30.21 852 25.16 -3.5 25.7 58 -10.5 13.1
00:20 1023 30.21 852 25.16 -3.8 25.2 61 -10.3 13.5
00:25 1023 30.21 852 25.16 -4 24.8 61 -10.5 13.2
00:30 1023 30.21 852 25.16 -4.2 24.5 62 -10.5 13.1
00:35 1023 30.21 852 25.16 -4.1 24.6 61 -10.6 12.9
00:40 1023 30.21 852 25.16 -4.2 24.5 60 -10.8 12.6
00:45 1023 30.21 852 25.16 -4.1 24.6 60 -10.8 12.5
00:50 1023 30.21 852 25.16 -4.1 24.7 60 -10.8 12.6
00:55 1023 30.21 852 25.16 -4.1 24.6 59 -10.9 12.4
01:00 1023 30.21 852 25.16 -4.2 24.5 60 -10.9 12.4
01:05 1023 30.21 852 25.16 -4.3 24.3 60 -10.9 12.4
01:10 1023 30.21 852 25.16 -4.3 24.2 61 -10.8 12.5
01:15 1023 30.21 852 25.16 -4.3 24.3 60 -10.9 12.3
01:20 1023 30.21 852 25.16 -4.2 24.4 60 -10.9 12.4
01:25 1023 30.21 852 25.16 -4.2 24.5 60 -10.9 12.4
01:30 1023 30.21 852 25.16 -4.1 24.6 60 -10.7 12.7
01:35 1023 30.21 852 25.16 -4.1 24.6 60 -10.8 12.5
01:40 1023 30.21 852 25.16 -4 24.7 59 -10.9 12.4
01:45 1023 30.21 852 25.16 -4 24.9 59 -10.7 12.7
01:50 1023 30.21 852 25.16 -3.9 25 60 -10.6 13
01:55 1023 30.21 852 25.16 -4 24.8 62 -10.3 13.5
02:00 1023 30.21 852 25.16 -4.1 24.6 62 -10.4 13.4
02:05 1023 30.21 852 25.16 -4 24.7 62 -10.4 13.3
02:10 1023 30.21 852 25.16 -3.9 25 61 -10.5 13.2
02:15 1023 30.21 852 25.16 -3.8 25.2 60 -10.4 13.3
02:20 1023 30.21 852 25.16 -3.7 25.3 60 -10.4 13.3
02:25 1023 30.21 853 25.19 -3.7 25.4 60 -10.3 13.4
02:30 1023 30.21 853 25.19 -3.6 25.5 61 -10.2 13.7
02:35 1024 30.24 853 25.19 -3.6 25.5 60 -10.3 13.5
02:40 1024 30.24 853 25.19 -3.5 25.7 59 -10.3 13.4
02:45 1024 30.24 853 25.19 -3.4 25.9 59 -10.4 13.3
02:50 1024 30.24 853 25.19 -3.3 26.1 61 -9.8 14.3
02:55 1024 30.24 853 25.19 -3.5 25.7 62 -9.7 14.5
03:00 1024 30.24 853 25.19 -3.7 25.3 62 -9.9 14.1
03:05 1024 30.24 853 25.19 -3.7 25.3 61 -10.3 13.5
03:10 1024 30.24 853 25.19 -3.6 25.6 58 -10.6 12.9
03:15 1024 30.24 853 25.19 -3.5 25.7 58 -10.6 13
03:20 1024 30.24 853 25.19 -3.4 25.8 59 -10.4 13.2
03:25 1024 30.24 853 25.19 -3.4 25.9 56 -11.1 12.1
03:30 1023 30.21 853 25.19 -3.3 26.1 56 -10.9 12.4
03:35 1024 30.24 853 25.19 -3.3 26.1 57 -10.6 12.9
03:40 1024 30.24 853 25.19 -3.3 26 58 -10.5 13.2
03:45 1024 30.24 853 25.19 -3.3 26 56 -10.8 12.5
03:50 1024 30.24 853 25.19 -3.2 26.3 54 -11.2 11.9
03:55 1024 30.24 853 25.19 -3 26.6 53 -11.3 11.6
04:00 1024 30.24 853 25.19 -2.9 26.8 53 -11.1 11.9
04:05 1024 30.24 853 25.19 -2.9 26.8 53 -11.2 11.9
04:10 1024 30.24 853 25.19 -2.9 26.7 54 -11 12.2
04:15 1023 30.21 853 25.19 -3 26.6 55 -10.7 12.7
04:20 1023 30.21 853 25.19 -3.2 26.2 55 -11 12.3
04:25 1023 30.21 853 25.19 -3.3 26 56 -11 12.2
04:30 1023 30.21 853 25.19 -3.5 25.8 56 -11 12.2
04:35 1023 30.21 853 25.19 -3.5 25.6 57 -10.9 12.3
04:40 1023 30.21 853 25.19 -3.7 25.4 56 -11.2 11.9
04:45 1023 30.21 853 25.19 -3.5 25.6 55 -11.3 11.7
04:50 1023 30.21 853 25.19 -3.4 25.9 56 -11 12.2
04:55 1023 30.21 853 25.19 -3.5 25.8 56 -11.1 12
05:00 1023 30.21 853 25.19 -3.5 25.8 55 -11.2 11.8
05:05 1023 30.21 852 25.16 -3.4 25.9 54 -11.5 11.4
05:10 1023 30.21 852 25.16 -3.3 26 54 -11.4 11.4
05:15 1023 30.21 852 25.16 -3.4 25.9 55 -11.2 11.8
05:20 1023 30.21 853 25.19 -3.4 26 55 -11.1 12.1
05:25 1023 30.21 853 25.19 -3.4 25.8 56 -11 12.1
05:30 1023 30.21 852 25.16 -3.5 25.8 55 -11.2 11.8
05:35 1023 30.21 852 25.16 -3.4 25.8 55 -11.3 11.7
05:40 1023 30.21 852 25.16 -3.4 25.8 55 -11.3 11.7
05:45 1023 30.21 852 25.16 -3.4 25.9 55 -11.3 11.7
05:50 1023 30.21 852 25.16 -3.4 25.9 55 -11.2 11.8
05:55 1023 30.21 852 25.16 -3.3 26 53 -11.5 11.2
06:00 1023 30.21 852 25.16 -3.2 26.2 54 -11.3 11.6
06:05 1023 30.21 852 25.16 -3.2 26.2 53 -11.4 11.4
06:10 1023 30.21 853 25.19 -3.3 26.1 54 -11.4 11.5
06:15 1023 30.21 853 25.19 -3.4 25.9 55 -11.3 11.7
06:20 1023 30.21 853 25.19 -3.5 25.8 54 -11.6 11.1
06:25 1023 30.21 853 25.19 -3.5 25.7 54 -11.5 11.4
06:30 1023 30.21 853 25.19 -3.5 25.7 54 -11.5 11.3
06:35 1023 30.21 852 25.16 -3.6 25.5 55 -11.5 11.3
06:40 1023 30.21 852 25.16 -3.8 25.2 55 -11.6 11.2
06:45 1023 30.21 852 25.16 -3.8 25.2 54 -11.9 10.6
06:50 1023 30.21 852 25.16 -3.8 25.1 54 -11.8 10.8
06:55 1023 30.21 852 25.16 -3.9 25.1 54 -11.8 10.8
07:00 1023 30.21 852 25.16 -3.8 25.3 53 -12 10.4
07:05 1023 30.21 852 25.16 -3.7 25.4 53 -11.8 10.8
07:10 1023 30.21 852 25.16 -3.8 25.2 54 -11.7 10.9
07:15 1023 30.21 852 25.16 -3.8 25.1 54 -11.9 10.6
07:20 1023 30.21 852 25.16 -3.8 25.2 53 -12 10.3
07:25 1023 30.21 852 25.16 -3.7 25.3 53 -12.1 10.3
07:30 1023 30.21 852 25.16 -3.9 25 54 -12 10.5
07:35 1023 30.21 852 25.16 -3.9 25 53 -12.2 10
07:40 1023 30.21 852 25.16 -3.9 25 53 -12.1 10.2
07:45 1023 30.21 852 25.16 -4 24.9 54 -11.9 10.5
07:50 1023 30.21 852 25.16 -4.1 24.6 54 -12 10.3
07:55 1023 30.21 852 25.16 -4.1 24.6 53 -12.3 9.8
08:00 1023 30.21 852 25.16 -4 24.8 53 -12.3 9.9
08:05 1023 30.21 852 25.16 -4 24.8 53 -12.3 9.9
08:10 1023 30.21 852 25.16 -4 24.8 53 -12.3 9.8
08:15 1023 30.21 852 25.16 -4 24.8 53 -12.2 10
08:20 1023 30.21 852 25.16 -4.1 24.5 53 -12.4 9.7
08:25 1023 30.21 852 25.16 -4.1 24.7 53 -12.4 9.8
08:30 1023 30.21 852 25.16 -4 24.8 53 -12.3 9.8
08:35 1023 30.21 853 25.19 -4 24.8 54 -12.1 10.2
08:40 1023 30.21 853 25.19 -4 24.7 54 -12 10.4
08:45 1023 30.21 853 25.19 -4 24.9 54 -11.9 10.6
08:50 1023 30.21 853 25.19 -3.7 25.3 53 -12.1 10.3
08:55 1023 30.21 853 25.19 -3.5 25.8 52 -11.9 10.6
09:00 1024 30.24 853 25.19 -3.3 26.1 52 -11.8 10.7
09:05 1024 30.24 853 25.19 -3.1 26.5 52 -11.6 11.2
09:10 1024 30.24 853 25.19 -3.1 26.4 54 -11.2 11.9
09:15 1024 30.24 853 25.19 -3.3 26.1 53 -11.6 11.2
09:20 1024 30.24 853 25.19 -3.2 26.3 54 -11.2 11.8
09:25 1024 30.24 853 25.19 -3.2 26.3 54 -11.3 11.6
09:30 1024 30.24 853 25.19 -3.3 26.1 53 -11.6 11.1
09:35 1024 30.24 853 25.19 -3.2 26.3 54 -11.3 11.7
09:40 1024 30.24 853 25.19 -3.1 26.5 54 -11.2 11.8
09:45 1024 30.24 853 25.19 -3 26.7 54 -11.1 12
09:50 1024 30.24 853 25.19 -3 26.6 54 -11.1 12.1
09:55 1024 30.24 853 25.19 -2.9 26.7 53 -11.2 11.8
10:00 1024 30.24 853 25.19 -2.8 26.9 54 -11 12.3
10:05 1024 30.24 853 25.19 -2.7 27.1 53 -10.9 12.3
10:10 1024 30.24 853 25.19 -2.6 27.4 53 -10.9 12.3
10:15 1024 30.24 853 25.19 -2.5 27.5 52 -11.1 12
10:20 1024 30.24 853 25.19 -2.5 27.6 53 -10.9 12.4
10:25 1024 30.24 853 25.19 -2.2 28.1 53 -10.6 13
10:30 1024 30.24 853 25.19 -2.1 28.3 52 -10.7 12.7
10:35 1024 30.24 853 25.19 -2 28.4 53 -10.4 13.2
10:40 1024 30.24 853 25.19 -1.9 28.7 52 -10.4 13.3
10:45 1024 30.24 853 25.19 -1.8 28.7 53 -10.3 13.5
10:50 1024 30.24 853 25.19 -1.7 28.9 51 -10.5 13.1
10:55 1024 30.24 853 25.19 -1.3 29.7 50 -10.5 13.2
11:00 1024 30.24 853 25.19 -0.9 30.3 50 -10 14
11:05 1024 30.24 853 25.19 -1 30.2 50 -10.2 13.7
11:10 1024 30.24 853 25.19 -0.9 30.3 51 -9.9 14.1
11:15 1024 30.24 853 25.19 -0.8 30.5 51 -9.8 14.4
11:20 1024 30.24 853 25.19 -0.7 30.8 50 -9.9 14.2
11:25 1024 30.24 853 25.19 -0.5 31 50 -9.7 14.5
11:30 1024 30.24 853 25.19 -0.3 31.4 49 -9.7 14.5
11:35 1024 30.24 853 25.19 -0.2 31.7 48 -9.8 14.3
11:40 1024 30.24 853 25.19 -0.1 31.8 47 -10 14
11:45 1024 30.24 853 25.19 -0 31.9 48 -9.8 14.3
11:50 1024 30.24 853 25.19 0 32 47 -10 14
11:55 1024 30.24 853 25.19 0.2 32.3 47 -9.9 14.3
12:00 1024 30.24 853 25.19 0.4 32.7 46 -9.8 14.3
12:05 1024 30.24 853 25.19 0.6 33.1 47 -9.6 14.8
12:10 1024 30.24 853 25.19 0.8 33.4 46 -9.6 14.8
12:15 1024 30.24 853 25.19 0.8 33.5 46 -9.4 15
12:20 1024 30.24 853 25.19 0.8 33.5 46 -9.5 14.9
12:25 1024 30.24 853 25.19 0.8 33.4 47 -9.4 15.1
12:30 1024 30.24 853 25.19 0.8 33.5 47 -9.3 15.2
12:35 1024 30.24 853 25.19 0.8 33.4 47 -9.2 15.5
12:40 1024 30.24 853 25.19 0.8 33.5 46 -9.5 14.9
12:45 1024 30.24 853 25.19 0.9 33.6 46 -9.6 14.8
12:50 1024 30.24 853 25.19 1 33.8 45 -9.6 14.8
12:55 1024 30.24 853 25.19 0.8 33.5 45 -9.7 14.5
13:00 1024 30.24 853 25.19 1 33.7 46 -9.5 14.8
13:05 1024 30.24 853 25.19 1.2 34.1 45 -9.6 14.7
13:10 1024 30.24 853 25.19 1.2 34.2 44 -9.8 14.4
13:15 1023 30.21 853 25.19 1.5 34.7 44 -9.5 14.8
13:20 1023 30.21 853 25.19 1.5 34.8 44 -9.6 14.8
13:25 1024 30.24 853 25.19 1.5 34.7 45 -9.3 15.3
13:30 1024 30.24 853 25.19 1.5 34.7 46 -8.9 16
13:35 1024 30.24 853 25.19 1.6 34.8 46 -9 15.9
13:40 1024 30.24 853 25.19 1.8 35.2 45 -9.1 15.6
13:45 1023 30.21 853 25.19 1.9 35.4 45 -8.7 16.3
13:50 1023 30.21 853 25.19 1.9 35.4 45 -8.8 16.2
13:55 1023 30.21 853 25.19 2 35.7 45 -8.6 16.5
14:00 1023 30.21 853 25.19 2.1 35.7 45 -8.6 16.4
14:05 1024 30.24 853 25.19 2 35.6 46 -8.4 16.8
14:10 1024 30.24 853 25.19 2 35.6 46 -8.4 16.8
14:15 1024 30.24 853 25.19 2 35.6 47 -8.2 17.2
14:20 1024 30.24 853 25.19 2 35.5 46 -8.5 16.8
14:25 1024 30.24 853 25.19 1.8 35.3 47 -8.3 17
14:30 1024 30.24 853 25.19 1.8 35.2 48 -8 17.6
14:35 1024 30.24 853 25.19 1.8 35.2 48 -8.2 17.3
14:40 1024 30.24 853 25.19 1.6 34.9 47 -8.4 16.9
14:45 1024 30.24 853 25.19 1.4 34.5 48 -8.4 17
14:50 1024 30.24 853 25.19 1.7 35 47 -8.4 16.9
14:55 1024 30.24 853 25.19 1.9 35.5 49 -7.8 18
15:00 1024 30.24 853 25.19 2.1 35.9 48 -7.7 18.2
15:05 1024 30.24 853 25.19 2.2 36 47 -8 17.6
15:10 1024 30.24 853 25.19 2.4 36.2 47 -7.9 17.8
15:15 1024 30.24 853 25.19 2.4 36.4 47 -7.9 17.8
15:20 1024 30.24 853 25.19 2.5 36.5 47 -7.7 18.1
15:25 1024 30.24 854 25.22 2.6 36.7 46 -7.8 18
15:30 1024 30.24 854 25.22 2.9 37.2 47 -7.4 18.7
15:35 1024 30.24 854 25.22 2.9 37.2 46 -7.5 18.6
15:40 1025 30.27 854 25.22 2.9 37.1 47 -7.3 18.9
15:45 1025 30.27 854 25.22 2.9 37.2 48 -7.1 19.3
15:50 1025 30.27 854 25.22 3 37.3 49 -6.9 19.6
15:55 1025 30.27 854 25.22 3 37.4 49 -6.8 19.7
16:00 1025 30.27 854 25.22 3 37.4 50 -6.5 20.3
16:05 1025 30.27 854 25.22 3.1 37.6 49 -6.5 20.3
16:10 1025 30.27 854 25.22 3.3 37.9 50 -6.2 20.8
16:15 1025 30.27 854 25.22 3.3 38 49 -6.3 20.6
16:20 1025 30.27 854 25.22 3.4 38.1 50 -6.2 20.9
16:25 1025 30.27 854 25.22 3.3 38 50 -6.1 21
16:30 1025 30.27 854 25.22 3.2 37.8 53 -5.5 22.1
16:35 1025 30.27 854 25.22 3.1 37.5 52 -5.9 21.3
16:40 1025 30.27 854 25.22 3.2 37.7 51 -6 21.3
16:45 1025 30.27 854 25.22 3.1 37.7 51 -5.9 21.3
16:50 1025 30.27 854 25.22 3.1 37.7 51 -6.1 21.1
16:55 1025 30.27 854 25.22 3.2 37.7 50 -6.2 20.9
17:00 1025 30.27 855 25.25 3.2 37.7 50 -6.1 21
17:05 1025 30.27 855 25.25 3.2 37.8 49 -6.3 20.6
17:10 1025 30.27 855 25.25 3.3 37.9 50 -6.1 21
17:15 1025 30.27 855 25.25 3.3 38 50 -6 21.2
17:20 1025 30.27 855 25.25 3.3 37.9 52 -5.7 21.7
17:25 1025 30.27 855 25.25 3.2 37.7 51 -5.9 21.4
17:30 1025 30.27 855 25.25 3.2 37.8 51 -6 21.2
17:35 1025 30.27 855 25.25 3.3 37.9 51 -5.8 21.5
17:40 1025 30.27 855 25.25 3.2 37.8 52 -5.7 21.8
17:45 1025 30.27 855 25.25 3.2 37.8 51 -6 21.1
17:50 1026 30.3 855 25.25 3.3 38 50 -6.1 21
17:55 1026 30.3 855 25.25 3.5 38.2 50 -6.1 21
18:00 1026 30.3 855 25.25 3.5 38.3 50 -6.1 21.1
18:05 1026 30.3 855 25.25 3.5 38.4 51 -5.8 21.6
18:10 1026 30.3 855 25.25 3.4 38 51 -5.9 21.5
18:15 1026 30.3 855 25.25 3.4 38.1 49 -6.2 20.8
18:20 1026 30.3 855 25.25 3.5 38.4 48 -6.3 20.6
18:25 1026 30.3 855 25.25 3.5 38.4 49 -6.2 20.8
18:30 1026 30.3 855 25.25 3.5 38.3 48 -6.3 20.6
18:35 1026 30.3 855 25.25 3.6 38.5 49 -6.2 20.8
18:40 1026 30.3 855 25.25 3.6 38.4 50 -6 21.3
18:45 1026 30.3 855 25.25 3.4 38.2 51 -5.9 21.4
18:50 1026 30.3 855 25.25 3.4 38.1 50 -6.1 21
18:55 1026 30.3 855 25.25 3.4 38 51 -6 21.3
19:00 1026 30.3 855 25.25 3.3 38 51 -5.9 21.3
19:05 1026 30.3 856 25.28 3.3 37.9 51 -5.8 21.5
19:10 1026 30.3 856 25.28 3.2 37.7 52 -5.7 21.7
19:15 1026 30.3 856 25.28 3.2 37.7 50 -6.1 20.9
19:20 1026 30.3 856 25.28 3.3 38 49 -6.4 20.5
19:25 1026 30.3 856 25.28 3.5 38.2 50 -6.1 21.1
19:30 1026 30.3 856 25.28 3.4 38.2 49 -6.2 20.9
19:35 1026 30.3 855 25.25 3.4 38.2 49 -6.3 20.6
19:40 1026 30.3 855 25.25 3.5 38.2 49 -6.1 21
19:45 1026 30.3 855 25.25 3.4 38 51 -5.9 21.4
19:50 1026 30.3 855 25.25 3.1 37.6 52 -5.9 21.4
19:55 1026 30.3 855 25.25 3.1 37.6 50 -6.2 20.8
20:00 1026 30.3 855 25.25 3.2 37.7 51 -6 21.2
20:05 1026 30.3 855 25.25 3.3 37.9 50 -6.1 21.1
20:10 1026 30.3 855 25.25 3.3 37.9 50 -6.1 21.1
20:15 1026 30.3 855 25.25 3.2 37.7 52 -5.8 21.6
20:20 1026 30.3 855 25.25 3 37.5 51 -6.1 21
20:25 1026 30.3 855 25.25 2.9 37.3 52 -5.9 21.5
20:30 1026 30.3 855 25.25 2.9 37.2 52 -6 21.2
20:35 1026 30.3 855 25.25 2.8 37 53 -5.8 21.6
20:40 1026 30.3 855 25.25 2.7 36.8 53 -6 21.1
20:45 1026 30.3 855 25.25 2.8 37 52 -6 21.1
20:50 1026 30.3 855 25.25 2.9 37.3 52 -6 21.1
20:55 1026 30.3 855 25.25 3.1 37.5 51 -6.2 20.8
21:00 1026 30.3 855 25.25 3.2 37.8 49 -6.5 20.4
21:05 1026 30.3 855 25.25 3.6 38.5 47 -6.5 20.2
21:10 1026 30.3 855 25.25 3.9 38.9 47 -6.3 20.7
21:15 1026 30.3 855 25.25 3.6 38.5 51 -5.7 21.7
21:20 1026 30.3 855 25.25 3.5 38.4 49 -6.1 21
21:25 1026 30.3 855 25.25 3.7 38.6 48 -6.3 20.6
21:30 1026 30.3 855 25.25 3.8 38.9 48 -6.1 20.9
21:35 1026 30.3 855 25.25 3.9 39 47 -6.3 20.7
21:40 1026 30.3 855 25.25 3.9 39.1 48 -6.2 20.9
21:45 1026 30.3 855 25.25 3.8 38.9 49 -6 21.2
21:50 1026 30.3 855 25.25 3.8 38.8 47 -6.5 20.3
21:55 1026 30.3 855 25.25 3.9 39 47 -6.4 20.5
22:00 1026 30.3 855 25.25 3.8 38.9 48 -6.1 21
22:05 1026 30.3 856 25.28 3.7 38.7 51 -5.6 22
22:10 1026 30.3 855 25.25 3.2 37.8 52 -5.7 21.8
22:15 1026 30.3 855 25.25 3 37.4 53 -5.6 21.9
22:20 1026 30.3 856 25.28 2.9 37.2 51 -6.3 20.6
22:25 1026 30.3 855 25.25 3 37.4 51 -6.1 21.1
22:30 1026 30.3 855 25.25 2.7 36.8 52 -6.1 21
22:35 1026 30.3 855 25.25 2.5 36.5 52 -6.3 20.7
22:40 1026 30.3 855 25.25 2.3 36.2 53 -6.2 20.8
22:45 1026 30.3 855 25.25 2.1 35.8 54 -6.2 20.8
22:50 1026 30.3 855 25.25 1.9 35.4 55 -6.2 20.8
22:55 1026 30.3 855 25.25 1.7 35 55 -6.3 20.7
23:00 1026 30.3 855 25.25 1.6 34.9 54 -6.7 19.9
23:05 1026 30.3 855 25.25 2.1 35.8 51 -6.9 19.6
23:10 1026 30.3 855 25.25 2.1 35.8 54 -6.2 20.8
23:15 1026 30.3 856 25.28 1.6 34.9 55 -6.5 20.4
23:20 1027 30.33 856 25.28 1.5 34.7 54 -6.7 19.9
23:25 1027 30.33 856 25.28 1.5 34.7 55 -6.7 20
23:30 1027 30.33 856 25.28 1.5 34.8 54 -6.8 19.8
23:35 1027 30.33 856 25.28 1.5 34.6 55 -6.7 20
23:40 1027 30.33 856 25.28 1.3 34.3 56 -6.7 20
23:45 1027 30.33 856 25.28 1 33.9 56 -6.7 19.9
23:50 1027 30.33 856 25.28 1 33.8 56 -6.8 19.7
23:55 1027 30.33 856 25.28 1 33.8 56 -6.8 19.8
24:00 1027 30.33 856 25.28 1 33.8 56 -6.8 19.8